Time;durP1;ratioP1;P1;durP2;ratioP2;P2;SDS_P1;SDS_P2;PMS_P1;PMS_P2;Temp;Humidity;BMP_temperature;BMP_pressure;BME280_temperature;BME280_humidity;BME280_pressure;Samples;Min_cycle;Max_cycle;Signal;HPM_P1;HPM_P2
2022/05/30 00:00:31;;;;;;;2.42;1.85;;;;;;;;;;5104690;28;20195;-66
2022/05/30 00:02:57;;;;;;;1.55;1.45;;;;;;;;;;5104417;28;20208;-66
2022/05/30 00:05:24;;;;;;;1.80;1.70;;;;;;;;;;5104456;28;20235;-66
2022/05/30 00:07:51;;;;;;;2.00;1.90;;;;;;;;;;5104062;28;20196;-66
2022/05/30 00:10:19;;;;;;;2.40;1.50;;;;;;;;;;5104205;28;20232;-66
2022/05/30 00:12:46;;;;;;;1.77;1.67;;;;;;;;;;5104018;28;20196;-66
2022/05/30 00:15:13;;;;;;;1.90;1.70;;;;;;;;;;5104419;28;20249;-66
2022/05/30 00:17:39;;;;;;;1.52;1.45;;;;;;;;;;5103767;28;20196;-66
2022/05/30 00:20:06;;;;;;;4.10;1.67;;;;;;;;;;5104081;28;20196;-66
2022/05/30 00:22:32;;;;;;;1.80;1.70;;;;;;;;;;5104009;28;20204;-66
2022/05/30 00:25:00;;;;;;;5.28;2.00;;;;;;;;;;5104013;28;20203;-66
2022/05/30 00:27:26;;;;;;;2.22;1.90;;;;;;;;;;5104046;28;20203;-66
2022/05/30 00:29:53;;;;;;;3.35;2.13;;;;;;;;;;5104041;28;20215;-66
2022/05/30 00:32:20;;;;;;;3.58;1.67;;;;;;;;;;5104041;28;20196;-66
2022/05/30 00:34:46;;;;;;;2.05;1.95;;;;;;;;;;5103767;28;20199;-66
2022/05/30 00:37:12;;;;;;;1.95;1.83;;;;;;;;;;5103550;28;20304;-66
2022/05/30 00:39:38;;;;;;;1.98;1.65;;;;;;;;;;5103567;28;20203;-66
2022/05/30 00:42:10;;;;;;;2.03;1.70;;;;;;;;;;5103590;28;20208;-66
2022/05/30 00:44:37;;;;;;;2.05;1.92;;;;;;;;;;5103691;28;20195;-66
2022/05/30 00:47:03;;;;;;;1.65;1.55;;;;;;;;;;5103324;28;20196;-66
2022/05/30 00:49:30;;;;;;;1.85;1.70;;;;;;;;;;5102752;28;20219;-66
2022/05/30 00:51:57;;;;;;;2.33;1.60;;;;;;;;;;5103492;28;20202;-66
2022/05/30 00:54:27;;;;;;;2.08;1.98;;;;;;;;;;5103283;28;20195;-66
2022/05/30 00:56:55;;;;;;;2.17;1.75;;;;;;;;;;5103231;28;20241;-66
2022/05/30 00:59:23;;;;;;;2.22;2.13;;;;;;;;;;5103512;28;20200;-66
2022/05/30 01:01:49;;;;;;;2.00;1.90;;;;;;;;;;5103180;28;20199;-66
2022/05/30 01:07:00;;;;;;;3.67;2.15;;;;;;;;;;5102977;28;20228;-66
2022/05/30 01:09:29;;;;;;;2.00;1.90;;;;;;;;;;5103215;28;20199;-66
2022/05/30 01:11:56;;;;;;;1.95;1.85;;;;;;;;;;5103175;28;20210;-66
2022/05/30 01:14:25;;;;;;;2.08;1.98;;;;;;;;;;5103398;28;20202;-66
2022/05/30 01:16:51;;;;;;;3.40;2.10;;;;;;;;;;5102818;28;20199;-66
2022/05/30 01:19:25;;;;;;;3.45;1.98;;;;;;;;;;5102888;28;20203;-66
2022/05/30 01:21:59;;;;;;;1.88;1.77;;;;;;;;;;5103017;28;20207;-66
2022/05/30 01:24:32;;;;;;;3.75;1.70;;;;;;;;;;5103232;28;20426;-66
2022/05/30 01:27:10;;;;;;;2.50;2.10;;;;;;;;;;5102578;28;20196;-66
2022/05/30 01:29:40;;;;;;;2.90;1.83;;;;;;;;;;5102730;28;20579;-66
2022/05/30 01:32:07;;;;;;;2.00;2.00;;;;;;;;;;5102409;28;20241;-66
2022/05/30 01:34:33;;;;;;;3.75;2.05;;;;;;;;;;5102823;28;20196;-66
2022/05/30 01:36:59;;;;;;;2.38;2.17;;;;;;;;;;5102378;28;20202;-66
2022/05/30 01:39:26;;;;;;;2.90;1.95;;;;;;;;;;5102747;28;20612;-67
2022/05/30 01:41:53;;;;;;;2.20;1.90;;;;;;;;;;5102639;28;20195;-66
2022/05/30 01:44:19;;;;;;;3.70;1.90;;;;;;;;;;5102716;28;20196;-66
2022/05/30 01:46:47;;;;;;;2.13;2.03;;;;;;;;;;5102573;28;20452;-66
2022/05/30 01:49:13;;;;;;;2.20;1.80;;;;;;;;;;5102620;28;20392;-66
2022/05/30 01:51:40;;;;;;;1.60;1.60;;;;;;;;;;5102488;28;20246;-66
2022/05/30 01:54:06;;;;;;;2.08;1.98;;;;;;;;;;5102397;28;20210;-66
2022/05/30 01:56:32;;;;;;;1.75;1.75;;;;;;;;;;5102414;28;20195;-66
2022/05/30 01:58:58;;;;;;;2.22;2.13;;;;;;;;;;5102621;28;20196;-66
2022/05/30 02:01:26;;;;;;;1.95;1.85;;;;;;;;;;5102263;28;20499;-68
2022/05/30 02:03:54;;;;;;;2.72;1.98;;;;;;;;;;5102323;28;20564;-66
2022/05/30 02:06:21;;;;;;;2.15;2.05;;;;;;;;;;5101848;28;20215;-66
2022/05/30 02:08:47;;;;;;;2.42;2.33;;;;;;;;;;5102564;28;20236;-66
2022/05/30 02:11:14;;;;;;;3.72;2.65;;;;;;;;;;5102438;28;20531;-66
2022/05/30 02:13:41;;;;;;;2.58;2.40;;;;;;;;;;5102346;28;20196;-66
2022/05/30 02:18:52;;;;;;;4.90;2.05;;;;;;;;;;5102328;28;20248;-66
2022/05/30 02:21:20;;;;;;;3.85;2.20;;;;;;;;;;5102452;28;20196;-66
2022/05/30 02:23:46;;;;;;;4.78;2.17;;;;;;;;;;5102437;28;20196;-66
2022/05/30 02:26:12;;;;;;;2.45;2.33;;;;;;;;;;5101925;28;20526;-66
2022/05/30 02:28:38;;;;;;;1.85;1.77;;;;;;;;;;5102326;28;20196;-66
2022/05/30 02:31:05;;;;;;;1.90;1.90;;;;;;;;;;5102132;28;20211;-66
2022/05/30 02:39:00;;;;;;;3.63;2.13;;;;;;;;;;5102206;28;20195;-66
2022/05/30 02:41:26;;;;;;;2.40;2.20;;;;;;;;;;5102079;28;20198;-66
2022/05/30 02:43:53;;;;;;;1.98;1.88;;;;;;;;;;5101893;28;20203;-66
2022/05/30 02:46:19;;;;;;;2.38;2.17;;;;;;;;;;5101808;28;20227;-67
2022/05/30 02:48:45;;;;;;;3.25;2.30;;;;;;;;;;5102090;28;20203;-66
2022/05/30 02:51:12;;;;;;;3.15;2.08;;;;;;;;;;5101936;28;20225;-66
2022/05/30 02:53:38;;;;;;;3.80;2.83;;;;;;;;;;5102001;28;20200;-66
2022/05/30 02:56:06;;;;;;;2.17;1.98;;;;;;;;;;5101800;28;20195;-66
2022/05/30 02:58:32;;;;;;;3.03;2.20;;;;;;;;;;5101686;28;20200;-66
2022/05/30 03:00:58;;;;;;;2.83;2.28;;;;;;;;;;5102063;28;20491;-66
2022/05/30 03:03:25;;;;;;;2.15;2.05;;;;;;;;;;5101896;28;20210;-66
2022/05/30 03:05:51;;;;;;;3.22;2.30;;;;;;;;;;5101995;28;20600;-66
2022/05/30 03:08:17;;;;;;;3.72;2.33;;;;;;;;;;5101765;28;20207;-66
2022/05/30 03:10:43;;;;;;;2.42;2.28;;;;;;;;;;5101790;28;20223;-66
2022/05/30 03:13:11;;;;;;;2.50;2.30;;;;;;;;;;5104759;28;20196;-66
2022/05/30 03:15:37;;;;;;;4.15;2.40;;;;;;;;;;5105580;28;20196;-66
2022/05/30 03:18:04;;;;;;;4.00;2.58;;;;;;;;;;5105353;28;20196;-66
2022/05/30 03:20:30;;;;;;;2.38;2.22;;;;;;;;;;5105364;28;20192;-66
2022/05/30 03:22:57;;;;;;;2.47;2.28;;;;;;;;;;5105342;28;20196;-66
2022/05/30 03:25:23;;;;;;;2.40;2.20;;;;;;;;;;5105121;28;20267;-66
2022/05/30 03:27:51;;;;;;;3.90;2.10;;;;;;;;;;5104861;28;20203;-66
2022/05/30 03:30:19;;;;;;;3.00;2.13;;;;;;;;;;5105276;28;20434;-66
2022/05/30 03:32:45;;;;;;;4.82;2.17;;;;;;;;;;5105249;28;20503;-66
2022/05/30 03:35:12;;;;;;;2.30;2.00;;;;;;;;;;5105043;28;20218;-66
2022/05/30 03:37:39;;;;;;;4.95;2.13;;;;;;;;;;5104796;28;20510;-66
2022/05/30 03:40:07;;;;;;;4.13;1.90;;;;;;;;;;5104905;28;20536;-66
2022/05/30 03:42:33;;;;;;;2.38;2.28;;;;;;;;;;5104720;28;20195;-66
2022/05/30 03:45:00;;;;;;;3.05;2.35;;;;;;;;;;5104995;28;20232;-66
2022/05/30 03:47:27;;;;;;;2.03;1.92;;;;;;;;;;5104636;28;20390;-66
2022/05/30 03:49:58;;;;;;;3.28;2.00;;;;;;;;;;5104617;28;20202;-66
2022/05/30 03:52:24;;;;;;;2.05;1.95;;;;;;;;;;5104980;28;20219;-66
2022/05/30 03:54:52;;;;;;;2.40;2.17;;;;;;;;;;5104526;28;20207;-67
2022/05/30 03:57:18;;;;;;;2.22;2.10;;;;;;;;;;5104571;28;20195;-67
2022/05/30 03:59:44;;;;;;;2.25;2.13;;;;;;;;;;5104615;28;20353;-67
2022/05/30 04:02:11;;;;;;;2.42;2.22;;;;;;;;;;5104494;28;20191;-67
2022/05/30 04:04:38;;;;;;;3.55;2.22;;;;;;;;;;5104259;28;20203;-67
2022/05/30 04:07:05;;;;;;;3.40;2.05;;;;;;;;;;5104092;28;20187;-67
2022/05/30 04:09:31;;;;;;;2.13;1.98;;;;;;;;;;5104260;28;20210;-67
2022/05/30 04:11:57;;;;;;;2.10;2.00;;;;;;;;;;5104371;28;20531;-67
2022/05/30 04:14:24;;;;;;;2.13;2.00;;;;;;;;;;5104390;28;20230;-67
2022/05/30 04:16:50;;;;;;;2.47;2.38;;;;;;;;;;5103884;28;20196;-67
2022/05/30 04:19:16;;;;;;;2.13;2.03;;;;;;;;;;5104053;28;20210;-67
2022/05/30 04:21:44;;;;;;;2.25;2.17;;;;;;;;;;5104082;28;20267;-67
2022/05/30 04:24:10;;;;;;;2.45;1.90;;;;;;;;;;5102779;28;20203;-67
2022/05/30 04:26:37;;;;;;;3.15;2.72;;;;;;;;;;5103843;28;20206;-67
2022/05/30 04:29:04;;;;;;;2.05;1.95;;;;;;;;;;5104781;28;20204;-67
2022/05/30 04:31:30;;;;;;;4.00;2.30;;;;;;;;;;5103897;28;20279;-67
2022/05/30 04:33:57;;;;;;;2.55;2.38;;;;;;;;;;5103748;28;20196;-67
2022/05/30 04:36:23;;;;;;;2.42;2.33;;;;;;;;;;5103609;28;20518;-67
2022/05/30 04:38:51;;;;;;;3.17;2.20;;;;;;;;;;5104038;28;20388;-67
2022/05/30 04:41:17;;;;;;;2.63;2.42;;;;;;;;;;5103724;28;20196;-67
2022/05/30 04:43:43;;;;;;;4.80;3.08;;;;;;;;;;5103747;28;20195;-67
2022/05/30 04:46:11;;;;;;;4.82;4.38;;;;;;;;;;5103505;28;20196;-67
2022/05/30 04:48:38;;;;;;;4.63;3.55;;;;;;;;;;5103615;28;20384;-67
2022/05/30 04:51:04;;;;;;;6.60;3.17;;;;;;;;;;5103277;28;20215;-67
2022/05/30 04:53:31;;;;;;;3.30;3.10;;;;;;;;;;5103642;28;20199;-67
2022/05/30 04:55:59;;;;;;;3.72;3.42;;;;;;;;;;5103487;28;20200;-67
2022/05/30 04:58:28;;;;;;;3.03;2.80;;;;;;;;;;5103400;28;20384;-67
2022/05/30 05:00:56;;;;;;;4.00;3.17;;;;;;;;;;5103342;28;20437;-67
2022/05/30 05:03:23;;;;;;;4.75;3.28;;;;;;;;;;5103169;28;20208;-67
2022/05/30 05:05:49;;;;;;;4.60;2.90;;;;;;;;;;5103093;28;20220;-67
2022/05/30 05:08:28;;;;;;;3.97;3.67;;;;;;;;;;5103468;28;20434;-67
2022/05/30 05:11:00;;;;;;;3.95;3.40;;;;;;;;;;5103081;28;20511;-67
2022/05/30 05:13:27;;;;;;;8.18;3.45;;;;;;;;;;5102491;28;20203;-67
2022/05/30 05:15:55;;;;;;;3.22;3.05;;;;;;;;;;5102476;28;20518;-67
2022/05/30 05:18:22;;;;;;;3.35;3.00;;;;;;;;;;5102511;28;20209;-67
2022/05/30 05:20:48;;;;;;;4.43;3.17;;;;;;;;;;5102405;28;20502;-67
2022/05/30 05:23:14;;;;;;;7.40;3.35;;;;;;;;;;5102672;28;20200;-67
2022/05/30 05:25:41;;;;;;;3.40;3.20;;;;;;;;;;5102653;28;20199;-67
2022/05/30 05:28:07;;;;;;;3.60;3.30;;;;;;;;;;5102387;28;20196;-67
2022/05/30 05:30:35;;;;;;;5.03;3.20;;;;;;;;;;5102622;28;20208;-67
2022/05/30 05:33:01;;;;;;;3.30;3.10;;;;;;;;;;5102526;28;20195;-67
2022/05/30 05:35:28;;;;;;;2.67;2.50;;;;;;;;;;5101993;28;20196;-67
2022/05/30 05:37:55;;;;;;;3.67;3.35;;;;;;;;;;5102242;28;20499;-67
2022/05/30 05:40:21;;;;;;;3.70;3.42;;;;;;;;;;5102115;28;20203;-67
2022/05/30 05:42:48;;;;;;;3.47;2.88;;;;;;;;;;5102217;28;20224;-67
2022/05/30 05:45:14;;;;;;;7.95;3.42;;;;;;;;;;5102171;28;20385;-67
2022/05/30 05:47:42;;;;;;;3.72;3.40;;;;;;;;;;5102094;28;20202;-67
2022/05/30 05:50:10;;;;;;;3.50;3.20;;;;;;;;;;5102409;28;20206;-67
2022/05/30 05:52:36;;;;;;;3.35;3.22;;;;;;;;;;5101867;28;20264;-67
2022/05/30 05:55:02;;;;;;;3.88;3.58;;;;;;;;;;5102056;28;20196;-67
2022/05/30 05:57:29;;;;;;;3.72;3.53;;;;;;;;;;5101603;28;20510;-67
2022/05/30 05:59:55;;;;;;;3.63;3.38;;;;;;;;;;5102477;28;20412;-67
2022/05/30 06:02:22;;;;;;;6.10;3.55;;;;;;;;;;5101853;28;20195;-67
2022/05/30 06:04:52;;;;;;;3.40;3.25;;;;;;;;;;5101891;28;20211;-67
2022/05/30 06:07:18;;;;;;;3.47;3.17;;;;;;;;;;5101603;28;20507;-67
2022/05/30 06:09:44;;;;;;;19.48;4.15;;;;;;;;;;5102667;28;20279;-67
2022/05/30 06:12:11;;;;;;;3.50;3.10;;;;;;;;;;5102889;28;20216;-67
2022/05/30 06:14:37;;;;;;;3.58;2.95;;;;;;;;;;5102208;28;20202;-67
2022/05/30 06:17:04;;;;;;;6.00;3.38;;;;;;;;;;5101715;28;20200;-67
2022/05/30 06:19:31;;;;;;;3.08;2.97;;;;;;;;;;5102002;28;20210;-67
2022/05/30 06:21:58;;;;;;;3.17;2.97;;;;;;;;;;5102120;28;20192;-67
2022/05/30 06:24:24;;;;;;;3.33;3.08;;;;;;;;;;5102119;28;20203;-67
2022/05/30 06:26:51;;;;;;;3.13;3.00;;;;;;;;;;5101781;28;20203;-67
2022/05/30 06:29:18;;;;;;;3.83;3.53;;;;;;;;;;5102328;28;20196;-67
2022/05/30 06:31:44;;;;;;;3.20;3.00;;;;;;;;;;5101981;28;20539;-67
2022/05/30 06:34:10;;;;;;;3.90;3.70;;;;;;;;;;5102200;28;20203;-67
2022/05/30 06:36:39;;;;;;;3.55;3.38;;;;;;;;;;5101910;28;20200;-67
2022/05/30 06:39:06;;;;;;;3.50;3.10;;;;;;;;;;5102058;28;20203;-67
2022/05/30 06:41:33;;;;;;;3.60;3.40;;;;;;;;;;5101890;28;20198;-67
2022/05/30 06:44:02;;;;;;;7.68;3.47;;;;;;;;;;5102067;28;20188;-67
2022/05/30 06:46:29;;;;;;;4.43;3.80;;;;;;;;;;5102161;28;20230;-67
2022/05/30 06:48:56;;;;;;;3.78;3.47;;;;;;;;;;5105855;28;20198;-67
2022/05/30 06:51:23;;;;;;;5.30;2.92;;;;;;;;;;5105670;28;20273;-67
2022/05/30 06:53:49;;;;;;;3.40;3.10;;;;;;;;;;5105779;28;20196;-67
2022/05/30 06:56:18;;;;;;;3.47;3.17;;;;;;;;;;5105395;28;20195;-67
2022/05/30 06:58:44;;;;;;;4.13;3.70;;;;;;;;;;5105944;28;20202;-67
2022/05/30 07:01:10;;;;;;;3.30;3.10;;;;;;;;;;5105427;28;20283;-67
2022/05/30 07:03:37;;;;;;;6.35;3.35;;;;;;;;;;5105600;28;20204;-67
2022/05/30 07:06:06;;;;;;;7.55;3.28;;;;;;;;;;5105201;28;20222;-67
2022/05/30 07:08:32;;;;;;;3.58;3.33;;;;;;;;;;5105725;28;20203;-67
2022/05/30 07:10:58;;;;;;;3.00;2.80;;;;;;;;;;5105698;28;20502;-67
2022/05/30 07:13:26;;;;;;;9.25;3.47;;;;;;;;;;5105388;28;20539;-67
2022/05/30 07:15:52;;;;;;;3.33;3.20;;;;;;;;;;5105464;28;20219;-67
2022/05/30 07:18:19;;;;;;;6.38;3.58;;;;;;;;;;5105120;28;20196;-67
2022/05/30 07:20:45;;;;;;;4.85;2.95;;;;;;;;;;5105254;28;20195;-67
2022/05/30 07:23:12;;;;;;;4.82;3.03;;;;;;;;;;5105151;28;20522;-67
2022/05/30 07:25:39;;;;;;;3.40;3.10;;;;;;;;;;5105316;28;20421;-67
2022/05/30 07:28:06;;;;;;;3.15;2.90;;;;;;;;;;5105065;28;20195;-67
2022/05/30 07:30:36;;;;;;;3.17;2.80;;;;;;;;;;5105144;28;20199;-67
2022/05/30 07:33:02;;;;;;;5.55;3.25;;;;;;;;;;5104853;28;20242;-67
2022/05/30 07:35:28;;;;;;;2.78;2.55;;;;;;;;;;5104825;28;20210;-67
2022/05/30 07:37:54;;;;;;;4.72;2.97;;;;;;;;;;5104754;28;20512;-67
2022/05/30 07:40:21;;;;;;;2.83;2.55;;;;;;;;;;5104984;28;20421;-67
2022/05/30 07:42:48;;;;;;;4.38;3.20;;;;;;;;;;5105197;28;20192;-67
2022/05/30 07:45:14;;;;;;;3.05;2.90;;;;;;;;;;5104849;28;20196;-67
2022/05/30 07:47:42;;;;;;;4.95;2.97;;;;;;;;;;5104475;28;20200;-67
2022/05/30 07:50:09;;;;;;;3.25;2.95;;;;;;;;;;5104655;28;20198;-67
2022/05/30 07:52:35;;;;;;;3.05;2.60;;;;;;;;;;5104453;28;20224;-67
2022/05/30 07:55:02;;;;;;;3.53;2.60;;;;;;;;;;5104558;28;20262;-67
2022/05/30 08:00:10;;;;;;;6.43;2.70;;;;;;;;;;5104264;28;20195;-68
2022/05/30 08:02:37;;;;;;;2.65;2.25;;;;;;;;;;5104241;28;20192;-68
2022/05/30 08:05:06;;;;;;;7.82;3.08;;;;;;;;;;5104757;28;20507;-67
2022/05/30 08:07:32;;;;;;;8.23;3.58;;;;;;;;;;5104461;28;20203;-68
2022/05/30 08:09:58;;;;;;;6.30;4.10;;;;;;;;;;5104296;28;20195;-68
2022/05/30 08:12:25;;;;;;;4.65;2.65;;;;;;;;;;5104167;28;20222;-68
2022/05/30 08:14:53;;;;;;;2.30;2.20;;;;;;;;;;5104210;28;20394;-68
2022/05/30 08:17:20;;;;;;;2.85;2.28;;;;;;;;;;5103684;28;20227;-68
2022/05/30 08:19:46;;;;;;;3.83;2.65;;;;;;;;;;5104411;28;20372;-66
2022/05/30 08:22:14;;;;;;;8.65;3.83;;;;;;;;;;5104042;28;20198;-66
2022/05/30 08:24:41;;;;;;;1.73;1.73;;;;;;;;;;5103954;28;20226;-66
2022/05/30 08:27:08;;;;;;;11.90;6.47;;;;;;;;;;5103721;28;20398;-68
2022/05/30 08:29:34;;;;;;;3.70;2.45;;;;;;;;;;5103669;28;20196;-66
2022/05/30 08:32:00;;;;;;;2.17;1.90;;;;;;;;;;5103725;28;20554;-66
2022/05/30 08:34:27;;;;;;;4.45;1.80;;;;;;;;;;5103853;28;20196;-68
2022/05/30 08:36:53;;;;;;;3.88;2.80;;;;;;;;;;5103749;28;20203;-68
2022/05/30 08:42:07;;;;;;;5.30;2.38;;;;;;;;;;5103807;28;20226;-68
2022/05/30 08:44:33;;;;;;;2.50;2.17;;;;;;;;;;5103477;28;20202;-66
2022/05/30 08:47:02;;;;;;;5.30;1.75;;;;;;;;;;5103567;28;20196;-68
2022/05/30 08:49:31;;;;;;;3.65;1.98;;;;;;;;;;5103635;28;20196;-68
2022/05/30 08:52:15;;;;;;;5.10;1.58;;;;;;;;;;5103505;28;20227;-66
2022/05/30 08:54:48;;;;;;;5.50;1.95;;;;;;;;;;5103384;28;20196;-68
2022/05/30 08:57:21;;;;;;;5.90;1.60;;;;;;;;;;5103368;28;20203;-68
2022/05/30 08:59:55;;;;;;;3.53;1.45;;;;;;;;;;5103426;28;20196;-66
2022/05/30 09:02:24;;;;;;;4.05;1.75;;;;;;;;;;5103028;28;20386;-68
2022/05/30 09:04:53;;;;;;;2.55;1.30;;;;;;;;;;5103056;28;20210;-68
2022/05/30 09:07:21;;;;;;;2.85;1.38;;;;;;;;;;5102885;28;20196;-68
2022/05/30 09:09:51;;;;;;;1.65;1.00;;;;;;;;;;5102588;28;20195;-68
2022/05/30 09:12:20;;;;;;;2.30;0.98;;;;;;;;;;5103021;28;20218;-68
2022/05/30 09:14:49;;;;;;;1.70;0.90;;;;;;;;;;5103177;28;20209;-68
2022/05/30 09:17:18;;;;;;;1.60;0.90;;;;;;;;;;5102628;28;20526;-68
2022/05/30 09:19:44;;;;;;;4.25;1.02;;;;;;;;;;5102855;28;20518;-68
2022/05/30 09:22:11;;;;;;;2.65;1.00;;;;;;;;;;5103080;28;20195;-68
2022/05/30 09:24:39;;;;;;;2.47;1.02;;;;;;;;;;5102765;28;20203;-68
2022/05/30 09:27:06;;;;;;;2.08;0.90;;;;;;;;;;5102672;28;20207;-68
2022/05/30 09:29:35;;;;;;;3.55;1.00;;;;;;;;;;5102865;28;20547;-68
2022/05/30 09:32:05;;;;;;;2.00;0.85;;;;;;;;;;5102565;28;20196;-68
2022/05/30 09:34:37;;;;;;;2.08;1.10;;;;;;;;;;5102764;28;20433;-66
2022/05/30 09:37:04;;;;;;;1.15;1.05;;;;;;;;;;5102426;28;20195;-66
2022/05/30 09:39:41;;;;;;;3.85;1.13;;;;;;;;;;5102310;28;20199;-68
2022/05/30 09:42:19;;;;;;;1.75;1.25;;;;;;;;;;5102654;28;20198;-68
2022/05/30 09:44:49;;;;;;;1.35;0.80;;;;;;;;;;5102949;28;20411;-68
2022/05/30 09:47:17;;;;;;;1.05;1.02;;;;;;;;;;5102881;28;20196;-69
2022/05/30 09:49:45;;;;;;;6.65;0.90;;;;;;;;;;5102708;28;20257;-69
2022/05/30 09:52:22;;;;;;;2.13;0.90;;;;;;;;;;5102541;28;20527;-69
2022/05/30 09:54:48;;;;;;;3.33;0.90;;;;;;;;;;5102402;28;20205;-69
2022/05/30 09:57:19;;;;;;;1.48;0.82;;;;;;;;;;5102233;28;20507;-69
2022/05/30 09:59:46;;;;;;;1.65;0.90;;;;;;;;;;5102607;28;20207;-69
2022/05/30 10:02:23;;;;;;;1.98;0.80;;;;;;;;;;5102471;28;20195;-69
2022/05/30 10:04:54;;;;;;;1.48;0.73;;;;;;;;;;5102234;28;20210;-69
2022/05/30 10:07:21;;;;;;;1.73;1.00;;;;;;;;;;5102275;28;20202;-69
2022/05/30 10:09:52;;;;;;;0.73;0.60;;;;;;;;;;5102261;28;20203;-69
2022/05/30 10:12:29;;;;;;;5.30;0.90;;;;;;;;;;5102446;28;20219;-69
2022/05/30 10:14:55;;;;;;;1.80;0.88;;;;;;;;;;5102382;28;20195;-69
2022/05/30 10:17:26;;;;;;;4.03;0.80;;;;;;;;;;5102530;28;20222;-68
2022/05/30 10:19:53;;;;;;;1.08;0.65;;;;;;;;;;5102316;28;20195;-68
2022/05/30 10:28:17;;;;;;;1.15;0.80;;;;;;;;;;5066987;28;20231;-68
2022/05/30 10:30:49;;;;;;;0.68;0.68;;;;;;;;;;5106563;28;20195;-68
2022/05/30 10:33:20;;;;;;;1.05;0.63;;;;;;;;;;5106444;28;20418;-68
2022/05/30 10:35:53;;;;;;;3.75;1.20;;;;;;;;;;5106432;28;20188;-68
2022/05/30 10:38:22;;;;;;;0.90;0.90;;;;;;;;;;5105953;28;20196;-68
2022/05/30 10:40:50;;;;;;;1.25;0.80;;;;;;;;;;5106057;28;20502;-67
2022/05/30 10:43:23;;;;;;;2.28;0.90;;;;;;;;;;5106071;28;20203;-68
2022/05/30 10:45:51;;;;;;;0.60;0.60;;;;;;;;;;5106025;28;20495;-68
2022/05/30 10:48:24;;;;;;;1.67;0.80;;;;;;;;;;5105767;28;20270;-67
2022/05/30 10:50:53;;;;;;;1.92;0.73;;;;;;;;;;5106437;28;20202;-69
2022/05/30 10:53:31;;;;;;;0.95;0.90;;;;;;;;;;5105857;28;20257;-67
2022/05/30 10:55:59;;;;;;;1.30;0.65;;;;;;;;;;5106062;28;20195;-67
2022/05/30 10:58:30;;;;;;;1.02;0.73;;;;;;;;;;5105606;28;20196;-67
2022/05/30 11:00:59;;;;;;;1.00;0.65;;;;;;;;;;5105837;28;20200;-67
2022/05/30 11:03:29;;;;;;;1.10;0.70;;;;;;;;;;5105623;28;20235;-67
2022/05/30 11:05:57;;;;;;;0.60;0.60;;;;;;;;;;5105447;28;20543;-67
2022/05/30 11:08:26;;;;;;;0.95;0.68;;;;;;;;;;5105430;28;20208;-69
2022/05/30 11:10:55;;;;;;;1.67;0.55;;;;;;;;;;5105554;28;20192;-67
2022/05/30 11:13:29;;;;;;;1.40;0.80;;;;;;;;;;5105521;28;20212;-68
2022/05/30 11:15:59;;;;;;;1.85;0.80;;;;;;;;;;5105337;28;20211;-69
2022/05/30 11:18:28;;;;;;;1.90;0.75;;;;;;;;;;5105266;28;20200;-69
2022/05/30 11:20:59;;;;;;;0.75;0.70;;;;;;;;;;5105403;28;20208;-67
2022/05/30 11:23:25;;;;;;;2.08;0.70;;;;;;;;;;5105607;28;20188;-67
2022/05/30 11:25:59;;;;;;;2.60;0.60;;;;;;;;;;5105220;28;20196;-67
2022/05/30 11:28:32;;;;;;;2.25;0.63;;;;;;;;;;5105076;28;20503;-67
2022/05/30 11:31:04;;;;;;;1.75;0.70;;;;;;;;;;5105215;28;20515;-67
2022/05/30 11:33:43;;;;;;;1.92;0.70;;;;;;;;;;5104580;28;20286;-67
2022/05/30 11:36:15;;;;;;;2.38;0.90;;;;;;;;;;5105077;28;20488;-67
2022/05/30 11:39:02;;;;;;;4.00;0.80;;;;;;;;;;5104920;28;20262;-67
2022/05/30 11:41:36;;;;;;;1.65;0.60;;;;;;;;;;5099723;28;20202;-67
2022/05/30 11:44:10;;;;;;;0.80;0.60;;;;;;;;;;5105108;28;20541;-67
2022/05/30 11:46:42;;;;;;;0.60;0.50;;;;;;;;;;5104649;28;20499;-67
2022/05/30 11:49:27;;;;;;;0.70;0.70;;;;;;;;;;5104856;28;20518;-67
2022/05/30 11:51:56;;;;;;;0.90;0.90;;;;;;;;;;5104688;28;20196;-67
2022/05/30 11:54:30;;;;;;;2.05;0.65;;;;;;;;;;5104710;28;20219;-67
2022/05/30 11:57:04;;;;;;;6.13;1.02;;;;;;;;;;5104912;28;20196;-67
2022/05/30 11:59:38;;;;;;;3.13;0.82;;;;;;;;;;5104710;28;20364;-67
2022/05/30 12:02:10;;;;;;;2.47;0.70;;;;;;;;;;5104574;28;20199;-67
2022/05/30 12:04:46;;;;;;;1.05;0.70;;;;;;;;;;5104208;28;20433;-67
2022/05/30 12:07:38;;;;;;;1.98;0.77;;;;;;;;;;5104509;28;20199;-67
2022/05/30 12:10:13;;;;;;;3.53;0.90;;;;;;;;;;5104407;28;20200;-67
2022/05/30 12:12:43;;;;;;;1.35;0.68;;;;;;;;;;5104247;28;20276;-67
2022/05/30 12:15:22;;;;;;;1.65;0.82;;;;;;;;;;5104605;28;20196;-67
2022/05/30 12:23:52;;;;;;;4.05;1.13;;;;;;;;;;5103955;28;20387;-67
2022/05/30 12:26:39;;;;;;;6.43;0.70;;;;;;;;;;5103942;28;20363;-67
2022/05/30 12:29:06;;;;;;;0.88;0.82;;;;;;;;;;5103905;28;20203;-67
2022/05/30 12:31:34;;;;;;;2.20;0.88;;;;;;;;;;5103668;28;20196;-67
2022/05/30 12:34:00;;;;;;;3.38;1.08;;;;;;;;;;5104145;28;20391;-68
2022/05/30 12:36:47;;;;;;;0.75;0.75;;;;;;;;;;5103841;28;20269;-68
2022/05/30 12:39:41;;;;;;;1.20;0.90;;;;;;;;;;5098901;28;20202;-68
2022/05/30 12:42:09;;;;;;;0.88;0.75;;;;;;;;;;5067516;28;20250;-68
2022/05/30 12:44:50;;;;;;;1.75;0.95;;;;;;;;;;5102983;28;20238;-68
2022/05/30 12:47:18;;;;;;;2.92;0.93;;;;;;;;;;5103666;28;20196;-68
2022/05/30 12:49:49;;;;;;;1.38;0.73;;;;;;;;;;5103760;28;20525;-68
2022/05/30 12:52:17;;;;;;;2.78;0.88;;;;;;;;;;5103440;28;20202;-68
2022/05/30 12:54:45;;;;;;;1.45;0.82;;;;;;;;;;5103395;28;20223;-68
2022/05/30 12:57:32;;;;;;;0.90;0.90;;;;;;;;;;5103393;28;20203;-68
2022/05/30 13:00:09;;;;;;;2.38;0.70;;;;;;;;;;5103634;28;20199;-68
2022/05/30 13:02:59;;;;;;;1.65;0.60;;;;;;;;;;5103190;28;20203;-68
2022/05/30 13:05:43;;;;;;;0.70;0.57;;;;;;;;;;5091318;28;20551;-68
2022/05/30 13:08:24;;;;;;;4.43;0.77;;;;;;;;;;5079455;28;20196;-68
2022/05/30 13:10:53;;;;;;;1.13;0.68;;;;;;;;;;5079284;28;20197;-68
2022/05/30 13:13:26;;;;;;;1.08;0.75;;;;;;;;;;5079241;28;20196;-68
2022/05/30 13:15:55;;;;;;;3.47;0.60;;;;;;;;;;5079692;28;20208;-68
2022/05/30 13:18:22;;;;;;;1.23;0.85;;;;;;;;;;5079258;28;20204;-68
2022/05/30 13:20:51;;;;;;;0.50;0.50;;;;;;;;;;5079300;28;20396;-68
2022/05/30 13:23:27;;;;;;;1.08;0.70;;;;;;;;;;5079336;28;20268;-68
2022/05/30 13:25:53;;;;;;;1.75;0.80;;;;;;;;;;5079575;28;20218;-68
2022/05/30 13:28:21;;;;;;;0.88;0.60;;;;;;;;;;5079329;28;20514;-68
2022/05/30 13:30:47;;;;;;;1.95;1.00;;;;;;;;;;5079365;28;20203;-68
2022/05/30 13:33:17;;;;;;;4.30;1.00;;;;;;;;;;5079168;28;20210;-68
2022/05/30 13:35:45;;;;;;;1.23;0.70;;;;;;;;;;5078768;28;20196;-68
2022/05/30 13:38:14;;;;;;;1.33;0.77;;;;;;;;;;5078602;28;20202;-68
2022/05/30 13:40:41;;;;;;;2.90;0.70;;;;;;;;;;5078840;28;20203;-68
2022/05/30 13:43:08;;;;;;;0.55;0.55;;;;;;;;;;5078745;28;20504;-68
2022/05/30 13:45:35;;;;;;;2.55;0.65;;;;;;;;;;5078855;28;20227;-68
2022/05/30 13:48:03;;;;;;;1.75;0.95;;;;;;;;;;5078770;28;20206;-69
2022/05/30 13:50:42;;;;;;;1.08;0.70;;;;;;;;;;5078505;28;20271;-68
2022/05/30 13:53:09;;;;;;;1.58;0.70;;;;;;;;;;5078854;28;20195;-68
2022/05/30 13:55:38;;;;;;;0.82;0.60;;;;;;;;;;5078834;28;20434;-68
2022/05/30 13:58:05;;;;;;;1.75;0.73;;;;;;;;;;5078545;28;20425;-69
2022/05/30 14:00:36;;;;;;;1.10;1.10;;;;;;;;;;5078526;28;20196;-69
2022/05/30 14:03:03;;;;;;;1.63;0.80;;;;;;;;;;5079027;28;20203;-69
2022/05/30 14:05:34;;;;;;;1.00;0.80;;;;;;;;;;5078003;28;20224;-69
2022/05/30 14:08:02;;;;;;;1.38;0.70;;;;;;;;;;5078196;28;20196;-69
2022/05/30 14:10:28;;;;;;;0.52;0.52;;;;;;;;;;5078340;28;20205;-69
2022/05/30 14:12:56;;;;;;;0.80;0.60;;;;;;;;;;5078222;28;20230;-69
2022/05/30 14:15:24;;;;;;;1.25;0.70;;;;;;;;;;5073247;28;20193;-69
2022/05/30 14:17:52;;;;;;;1.85;0.70;;;;;;;;;;5064619;28;20211;-69
2022/05/30 14:20:27;;;;;;;1.20;0.90;;;;;;;;;;5064987;28;20223;-69
2022/05/30 14:22:56;;;;;;;2.92;0.80;;;;;;;;;;5064734;28;20391;-69
2022/05/30 14:25:26;;;;;;;5.88;1.40;;;;;;;;;;5064559;28;20227;-69
2022/05/30 14:27:52;;;;;;;13.10;2.92;;;;;;;;;;5064482;28;20223;-69
2022/05/30 14:30:23;;;;;;;1.50;0.90;;;;;;;;;;5064564;28;20203;-69
2022/05/30 14:32:51;;;;;;;16.13;2.58;;;;;;;;;;5064597;28;20476;-69
2022/05/30 14:35:23;;;;;;;0.95;0.80;;;;;;;;;;5064449;28;20500;-69
2022/05/30 14:38:01;;;;;;;1.45;0.60;;;;;;;;;;5064369;28;20215;-69
2022/05/30 14:40:32;;;;;;;1.02;0.75;;;;;;;;;;5064427;28;20267;-69
2022/05/30 14:42:59;;;;;;;1.02;0.77;;;;;;;;;;5064713;28;20196;-69
2022/05/30 14:45:28;;;;;;;0.85;0.85;;;;;;;;;;5064408;28;20230;-69
2022/05/30 14:47:56;;;;;;;0.70;0.70;;;;;;;;;;5063970;28;20196;-69
2022/05/30 14:50:24;;;;;;;2.50;0.63;;;;;;;;;;5064070;28;20196;-69
2022/05/30 14:52:53;;;;;;;0.82;0.65;;;;;;;;;;5064226;28;20496;-69
2022/05/30 14:55:25;;;;;;;2.17;0.60;;;;;;;;;;5063950;28;20192;-69
2022/05/30 14:57:53;;;;;;;6.68;0.98;;;;;;;;;;5063752;28;20196;-69
2022/05/30 15:00:23;;;;;;;4.95;1.00;;;;;;;;;;5064002;28;20203;-69
2022/05/30 15:05:35;;;;;;;4.50;1.02;;;;;;;;;;5063668;28;20226;-70
2022/05/30 15:08:01;;;;;;;0.70;0.60;;;;;;;;;;5063549;28;20209;-69
2022/05/30 15:10:28;;;;;;;0.80;0.80;;;;;;;;;;5063992;28;20395;-69
2022/05/30 15:12:54;;;;;;;4.22;1.10;;;;;;;;;;5064013;28;20213;-69
2022/05/30 15:15:20;;;;;;;0.93;0.77;;;;;;;;;;5063641;28;20200;-67
2022/05/30 15:17:48;;;;;;;0.98;0.80;;;;;;;;;;5063570;28;20201;-67
2022/05/30 15:20:18;;;;;;;2.70;1.15;;;;;;;;;;5063570;28;20266;-69
2022/05/30 15:22:44;;;;;;;2.10;0.95;;;;;;;;;;5063808;28;20197;-67